Bellatrix — XUAB4 — position and weather

sailwx.info

Track history (hours):
 
Tides and Currents Weather Stations Pressure Air Temp Water Temp Dewpoint Dewpoint Depression Visibility Wind Speed Wind Dir Waves Ship Positions

Bellatrix

Last reported at 2015-May-25 23:12 UTC. Time now 2015-May-27 18:01 UTC.
Position N 44°26' E 034°13'.

Length 114 m; draft 3.6 m.

Type: Cargo ship. MMSI: 515288000.

Date/timePositionNaut miles runAvg speedWind from/ knotsBaromVisibWave heightAir tempDewpointWater temp
2015-May-25 23:12N 44°26' E 034°13'5 8.4
2015-May-25 22:33N 44°29' E 034°19'8 8.3
2015-May-25 21:33N 44°34' E 034°29'8 8.2
2015-May-25 20:33N 44°38' E 034°38'8 8.0
2015-May-25 19:33N 44°43' E 034°48'8 7.8
2015-May-25 18:33N 44°44' E 034°59'8 7.7
2015-May-25 17:31N 44°45' E 035°10'15 7.6
2015-May-25 15:33N 44°47' E 035°30'8 7.7
2015-May-25 14:33N 44°49' E 035°41'8 7.9
2015-May-25 13:33N 44°51' E 035°52'  
Track history (hours):
 
Tides and Currents Weather Stations Pressure Air Temp Water Temp Dewpoint Dewpoint Depression Visibility Wind Speed Wind Dir Waves Ship Positions

Bellatrix

Last reported at 2015-May-25 23:12 UTC. Time now 2015-May-27 18:01 UTC.
Position N 44°26' E 034°13'.

Length 114 m; draft 3.6 m.

Type: Cargo ship. MMSI: 515288000.

Date/timePositionNaut miles runAvg speedWind from/ knotsBaromVisibWave heightAir tempDewpointWater temp
2015-May-25 23:12N 44°26' E 034°13'5 8.4
2015-May-25 22:33N 44°29' E 034°19'8 8.3
2015-May-25 21:33N 44°34' E 034°29'8 8.2
2015-May-25 20:33N 44°38' E 034°38'8 8.0
2015-May-25 19:33N 44°43' E 034°48'8 7.8
2015-May-25 18:33N 44°44' E 034°59'8 7.7
2015-May-25 17:31N 44°45' E 035°10'15 7.6
2015-May-25 15:33N 44°47' E 035°30'8 7.7
2015-May-25 14:33N 44°49' E 035°41'8 7.9
2015-May-25 13:33N 44°51' E 035°52'  

Dump ship's entire track history